createdAt,value
2023-05-06T00:01:26.200Z,10.71
2023-05-06T00:03:54.312Z,10.84
2023-05-06T00:06:22.452Z,10.84
2023-05-06T00:08:51.888Z,10.84
2023-05-06T00:11:19.851Z,10.83
2023-05-06T00:13:47.731Z,10.67
2023-05-06T00:16:15.854Z,10.71
2023-05-06T00:18:44.500Z,10.77
2023-05-06T00:21:12.401Z,10.73
2023-05-06T00:23:40.380Z,10.78
2023-05-06T00:26:11.588Z,10.82
2023-05-06T00:28:39.538Z,10.78
2023-05-06T00:31:07.441Z,10.83
2023-05-06T00:33:35.687Z,10.87
2023-05-06T00:36:03.551Z,10.91
2023-05-06T00:38:31.653Z,10.91
2023-05-06T00:40:59.647Z,10.83
2023-05-06T00:43:28.909Z,10.76
2023-05-06T00:45:56.961Z,10.65
2023-05-06T00:48:25.250Z,10.70
2023-05-06T00:50:53.532Z,10.78
2023-05-06T00:53:22.604Z,10.83
2023-05-06T00:55:52.153Z,10.80
2023-05-06T00:58:21.204Z,10.75
2023-05-06T01:00:52.451Z,10.67
2023-05-06T01:03:23.428Z,10.66
2023-05-06T01:06:01.587Z,10.62
2023-05-06T01:08:36.030Z,10.65
2023-05-06T01:11:12.418Z,10.65
2023-05-06T01:13:48.273Z,10.67
2023-05-06T01:16:21.648Z,10.73
2023-05-06T01:18:50.747Z,10.70
2023-05-06T01:21:20.458Z,10.67
2023-05-06T01:23:53.640Z,10.71
2023-05-06T01:26:21.562Z,10.89
2023-05-06T01:28:49.961Z,10.76
2023-05-06T01:31:26.121Z,10.72
2023-05-06T01:34:06.502Z,10.76
2023-05-06T01:36:44.012Z,10.76
2023-05-06T01:39:16.815Z,10.89
2023-05-06T01:41:51.054Z,10.89
2023-05-06T01:44:23.478Z,10.89
2023-05-06T01:46:53.411Z,10.94
2023-05-06T01:49:23.271Z,10.85
2023-05-06T01:51:51.759Z,11.00
2023-05-06T01:54:21.110Z,10.90
2023-05-06T01:56:48.986Z,10.99
2023-05-06T01:59:16.938Z,10.90
2023-05-06T02:01:45.135Z,10.88
2023-05-06T02:04:15.837Z,11.02
2023-05-06T02:06:43.797Z,11.04
2023-05-06T02:09:11.745Z,11.10
2023-05-06T02:11:41.137Z,11.03
2023-05-06T02:14:09.130Z,11.10
2023-05-06T02:16:37.301Z,11.07
2023-05-06T02:19:06.146Z,11.07
2023-05-06T02:21:34.205Z,11.18
2023-05-06T02:24:02.233Z,11.03
2023-05-06T02:26:30.112Z,10.95
2023-05-06T02:28:59.339Z,10.88
2023-05-06T02:31:27.638Z,10.87
2023-05-06T02:33:55.601Z,10.94
2023-05-06T02:36:23.498Z,11.00
2023-05-06T02:38:51.814Z,11.03
2023-05-06T02:41:19.882Z,10.82
2023-05-06T02:43:47.772Z,10.83
2023-05-06T02:46:17.265Z,10.76
2023-05-06T02:48:45.238Z,10.76
2023-05-06T02:51:13.195Z,10.76
2023-05-06T02:53:41.302Z,10.69
2023-05-06T02:56:09.228Z,10.74
2023-05-06T02:58:37.181Z,10.76
2023-05-06T03:01:05.196Z,10.76
2023-05-06T03:03:34.467Z,10.89
2023-05-06T03:06:02.469Z,10.94
2023-05-06T03:08:30.448Z,10.98
2023-05-06T03:10:58.347Z,10.68
2023-05-06T03:13:26.207Z,10.72
2023-05-06T03:15:55.048Z,10.85
2023-05-06T03:18:23.373Z,10.92
2023-05-06T03:20:52.848Z,10.92
2023-05-06T03:23:20.818Z,11.07
2023-05-06T03:25:48.846Z,10.84
2023-05-06T03:28:16.792Z,10.92
2023-05-06T03:30:44.817Z,10.91
2023-05-06T03:33:13.086Z,11.04
2023-05-06T03:35:41.278Z,10.99
2023-05-06T03:38:10.818Z,10.73
2023-05-06T03:40:38.962Z,10.81
2023-05-06T03:43:07.080Z,10.69
2023-05-06T03:45:35.115Z,10.72
2023-05-06T03:48:03.115Z,10.64
2023-05-06T03:50:31.085Z,10.58
2023-05-06T03:52:59.130Z,10.52
2023-05-06T03:55:28.595Z,10.60
2023-05-06T03:57:56.574Z,10.54
2023-05-06T04:00:24.788Z,10.74
2023-05-06T04:02:52.741Z,10.63
2023-05-06T04:05:20.893Z,10.74
2023-05-06T04:07:48.918Z,10.69
2023-05-06T04:10:17.446Z,10.63
2023-05-06T04:12:47.287Z,10.66
2023-05-06T04:15:15.347Z,10.64
2023-05-06T04:17:43.475Z,10.70
2023-05-06T04:20:12.339Z,10.62
2023-05-06T04:22:40.281Z,10.60
2023-05-06T04:25:09.850Z,10.64
2023-05-06T04:27:37.881Z,10.66
2023-05-06T04:30:08.910Z,10.61
2023-05-06T04:32:38.799Z,10.50
2023-05-06T04:35:08.095Z,10.51
2023-05-06T04:37:36.156Z,10.61
2023-05-06T04:40:06.280Z,10.77
2023-05-06T04:42:34.701Z,10.62
2023-05-06T04:45:03.995Z,10.64
2023-05-06T04:47:33.317Z,10.65
2023-05-06T04:50:01.292Z,10.58
2023-05-06T04:52:29.533Z,10.53
2023-05-06T04:54:57.448Z,10.68
2023-05-06T04:57:25.440Z,10.74
2023-05-06T04:59:53.468Z,10.78
2023-05-06T05:02:21.456Z,10.77
2023-05-06T05:04:51.013Z,10.58
2023-05-06T05:07:18.921Z,10.55
2023-05-06T05:09:46.881Z,10.47
2023-05-06T05:12:15.233Z,10.54
2023-05-06T05:14:43.769Z,10.57
2023-05-06T05:17:11.927Z,10.62
2023-05-06T05:19:39.855Z,10.60
2023-05-06T05:22:09.256Z,10.64
2023-05-06T05:24:37.289Z,10.66
2023-05-06T05:27:05.656Z,10.72
2023-05-06T05:29:34.012Z,10.71
2023-05-06T05:32:01.946Z,10.63
2023-05-06T05:34:31.541Z,10.62
2023-05-06T05:36:59.561Z,10.69
2023-05-06T05:39:28.785Z,10.62
2023-05-06T05:41:56.694Z,10.72
2023-05-06T05:44:24.693Z,10.71
2023-05-06T05:46:52.674Z,10.97
2023-05-06T05:49:20.661Z,10.91
2023-05-06T05:51:48.642Z,10.85
2023-05-06T05:54:16.597Z,10.95
2023-05-06T05:56:46.082Z,11.05
2023-05-06T05:59:14.005Z,11.02
2023-05-06T06:01:42.086Z,10.92
2023-05-06T06:04:10.250Z,11.01
2023-05-06T06:06:39.372Z,10.87
2023-05-06T06:09:07.400Z,10.84
2023-05-06T06:11:35.299Z,11.03
2023-05-06T06:14:04.649Z,11.11
2023-05-06T06:16:32.665Z,11.10
2023-05-06T06:19:00.704Z,11.10
2023-05-06T06:21:28.951Z,11.14
2023-05-06T06:23:57.035Z,11.23
2023-05-06T06:26:25.084Z,11.11
2023-05-06T06:28:53.150Z,11.20
2023-05-06T06:31:23.080Z,10.89
2023-05-06T06:33:51.006Z,10.80
2023-05-06T06:36:18.994Z,11.02
2023-05-06T06:38:46.849Z,11.08
2023-05-06T06:41:14.837Z,11.03
2023-05-06T06:43:43.108Z,11.08
2023-05-06T06:46:11.159Z,11.21
2023-05-06T06:48:40.614Z,11.18
2023-05-06T06:51:08.574Z,11.22
2023-05-06T06:53:36.616Z,11.16
2023-05-06T06:56:04.580Z,11.22
2023-05-06T06:58:34.527Z,11.30
2023-05-06T07:01:02.414Z,11.48
2023-05-06T07:03:30.391Z,11.45
2023-05-06T07:06:00.042Z,11.41
2023-05-06T07:08:28.066Z,11.46
2023-05-06T07:10:56.578Z,11.48
2023-05-06T07:13:24.619Z,11.46
2023-05-06T07:15:52.570Z,11.52
2023-05-06T07:18:20.821Z,11.46
2023-05-06T07:20:49.214Z,11.50
2023-05-06T07:23:22.969Z,11.37
2023-05-06T07:25:50.998Z,11.55
2023-05-06T07:28:20.056Z,11.62
2023-05-06T07:30:48.237Z,11.58
2023-05-06T07:33:18.071Z,11.63
2023-05-06T07:35:46.180Z,11.53
2023-05-06T07:38:14.245Z,11.43
2023-05-06T07:40:43.855Z,11.53
2023-05-06T07:43:12.103Z,11.36
2023-05-06T07:45:40.115Z,11.43
2023-05-06T07:48:08.131Z,11.57
2023-05-06T07:50:36.140Z,11.72
2023-05-06T07:53:04.132Z,11.62
2023-05-06T07:55:33.890Z,11.68
2023-05-06T07:58:04.443Z,11.66
2023-05-06T08:00:32.730Z,11.63
2023-05-06T08:03:01.230Z,11.74
2023-05-06T08:05:29.256Z,11.64
2023-05-06T08:07:57.331Z,11.74
2023-05-06T08:10:25.634Z,11.87
2023-05-06T08:12:53.815Z,11.92
2023-05-06T08:15:23.238Z,12.06
2023-05-06T08:17:51.127Z,12.33
2023-05-06T08:20:19.854Z,12.23
2023-05-06T08:22:47.740Z,12.00
2023-05-06T08:25:17.183Z,11.95
2023-05-06T08:27:45.273Z,12.15
2023-05-06T08:30:14.573Z,12.05
2023-05-06T08:32:44.130Z,12.23
2023-05-06T08:35:12.281Z,12.18
2023-05-06T08:37:40.545Z,12.19
2023-05-06T08:40:19.448Z,12.26
2023-05-06T08:42:48.463Z,12.24
2023-05-06T08:45:19.135Z,12.27
2023-05-06T08:47:48.903Z,12.21
2023-05-06T08:50:17.251Z,12.34
2023-05-06T08:52:46.382Z,12.49
2023-05-06T08:55:15.066Z,12.60
2023-05-06T08:57:46.338Z,12.61
2023-05-06T09:00:15.899Z,12.60
2023-05-06T09:02:44.370Z,12.63
2023-05-06T09:05:13.959Z,12.40
2023-05-06T09:07:42.101Z,12.47
2023-05-06T09:10:14.950Z,12.33
2023-05-06T09:12:42.995Z,12.45
2023-05-06T09:15:13.265Z,12.42
2023-05-06T09:17:41.681Z,12.38
2023-05-06T09:20:14.856Z,12.44
2023-05-06T09:22:42.863Z,12.67
2023-05-06T09:25:12.271Z,12.90
2023-05-06T09:27:41.369Z,13.01
2023-05-06T09:30:11.873Z,12.80
2023-05-06T09:32:41.127Z,12.74
2023-05-06T09:35:10.752Z,12.80
2023-05-06T09:37:40.742Z,12.95
2023-05-06T09:40:11.048Z,12.90
2023-05-06T09:42:39.097Z,13.03
2023-05-06T09:45:10.288Z,13.09
2023-05-06T09:47:39.252Z,13.23
2023-05-06T09:50:09.966Z,13.19
2023-05-06T09:52:38.497Z,13.34
2023-05-06T09:55:09.983Z,13.50
2023-05-06T09:57:38.643Z,13.36
2023-05-06T10:00:11.603Z,13.27
2023-05-06T10:02:42.205Z,13.24
2023-05-06T10:05:12.433Z,13.18
2023-05-06T10:07:43.759Z,13.21
2023-05-06T10:10:13.562Z,13.10
2023-05-06T10:12:45.258Z,13.11
2023-05-06T10:15:13.496Z,12.87
2023-05-06T10:17:47.540Z,12.98
2023-05-06T10:20:18.299Z,13.17
2023-05-06T10:23:02.256Z,13.14
2023-05-06T10:25:38.912Z,12.86
2023-05-06T10:28:18.519Z,12.67
2023-05-06T10:30:53.329Z,12.73
2023-05-06T10:33:24.032Z,12.85
2023-05-06T10:36:01.926Z,12.82
2023-05-06T10:38:36.004Z,12.68
2023-05-06T10:41:05.748Z,12.57
2023-05-06T10:43:41.379Z,12.55
2023-05-06T10:46:11.030Z,12.69
2023-05-06T10:48:39.948Z,12.81
2023-05-06T10:51:24.850Z,12.89
2023-05-06T10:54:04.190Z,12.90
2023-05-06T10:56:34.891Z,12.89
2023-05-06T10:59:08.067Z,12.78
2023-05-06T11:01:37.667Z,12.92
2023-05-06T11:04:10.011Z,12.93
2023-05-06T11:06:40.582Z,12.80
2023-05-06T11:09:18.193Z,12.60
2023-05-06T11:12:00.581Z,12.53
2023-05-06T11:14:30.948Z,12.67
2023-05-06T11:17:01.648Z,12.67
2023-05-06T11:19:31.153Z,12.85
2023-05-06T11:22:00.300Z,12.89
2023-05-06T11:24:30.071Z,13.00
2023-05-06T11:27:01.289Z,12.98
2023-05-06T11:29:29.534Z,12.93
2023-05-06T11:31:57.572Z,12.74
2023-05-06T11:34:28.125Z,12.79
2023-05-06T11:37:02.724Z,12.74
2023-05-06T11:39:40.002Z,12.76
2023-05-06T11:42:10.349Z,12.86
2023-05-06T11:44:39.882Z,12.92
2023-05-06T11:47:09.450Z,12.82
2023-05-06T11:49:39.250Z,12.97
2023-05-06T11:52:07.804Z,12.88
2023-05-06T11:54:37.287Z,12.89
2023-05-06T11:57:05.760Z,12.98
2023-05-06T11:59:37.556Z,13.08
2023-05-06T12:02:07.544Z,13.07
2023-05-06T12:04:39.931Z,12.90
2023-05-06T12:07:09.921Z,12.86
2023-05-06T12:09:38.997Z,12.52
2023-05-06T12:12:08.599Z,12.63
2023-05-06T12:14:38.803Z,12.82
2023-05-06T12:17:07.402Z,12.84
2023-05-06T12:19:35.802Z,12.83
2023-05-06T12:22:18.288Z,12.94
2023-05-06T12:24:46.668Z,12.89
2023-05-06T12:27:14.664Z,12.74
2023-05-06T12:29:54.197Z,13.11
2023-05-06T12:32:22.318Z,13.28
2023-05-06T12:34:50.458Z,13.41
2023-05-06T12:37:26.584Z,13.46
2023-05-06T12:39:57.007Z,13.32
2023-05-06T12:42:27.075Z,13.42
2023-05-06T12:44:56.434Z,13.34
2023-05-06T12:47:26.873Z,13.37
2023-05-06T12:49:58.347Z,13.38
2023-05-06T12:52:28.757Z,13.11
2023-05-06T12:54:57.549Z,13.29
2023-05-06T12:57:26.129Z,13.30
2023-05-06T12:59:56.385Z,13.10
2023-05-06T13:02:36.801Z,13.26
2023-05-06T13:05:05.641Z,13.29
2023-05-06T13:07:33.899Z,13.51
2023-05-06T13:10:03.373Z,13.70
2023-05-06T13:12:32.287Z,13.85
2023-05-06T13:15:00.517Z,13.70
2023-05-06T13:17:30.014Z,13.39
2023-05-06T13:19:58.326Z,13.31
2023-05-06T13:22:26.408Z,13.51
2023-05-06T13:24:54.783Z,13.50
2023-05-06T13:27:23.111Z,13.64
2023-05-06T13:29:51.114Z,13.39
2023-05-06T13:32:19.903Z,13.22
2023-05-06T13:34:49.435Z,13.16
2023-05-06T13:37:18.671Z,13.35
2023-05-06T13:39:46.656Z,13.41
2023-05-06T13:42:14.572Z,13.35
2023-05-06T13:44:42.474Z,13.24
2023-05-06T13:47:10.586Z,13.42
2023-05-06T13:49:38.517Z,13.55
2023-05-06T13:52:08.278Z,13.49
2023-05-06T13:54:36.541Z,13.33
2023-05-06T13:57:04.751Z,13.10
2023-05-06T13:59:32.668Z,13.14
2023-05-06T14:02:01.307Z,13.18
2023-05-06T14:04:29.346Z,13.21
2023-05-06T14:06:57.626Z,13.27
2023-05-06T14:09:27.013Z,13.11
2023-05-06T14:11:54.872Z,13.12
2023-05-06T14:14:22.730Z,12.98
2023-05-06T14:16:53.481Z,13.06
2023-05-06T14:19:21.442Z,13.11
2023-05-06T14:21:49.316Z,13.08
2023-05-06T14:24:18.281Z,13.04
2023-05-06T14:26:47.788Z,13.22
2023-05-06T14:29:15.731Z,13.16
2023-05-06T14:31:43.671Z,13.11
2023-05-06T14:34:12.054Z,13.09
2023-05-06T14:36:39.988Z,12.90
2023-05-06T14:39:07.974Z,13.01
2023-05-06T14:41:35.963Z,12.98
2023-05-06T14:44:05.614Z,12.77
2023-05-06T14:46:33.570Z,12.77
2023-05-06T14:49:01.607Z,12.84
2023-05-06T14:51:32.617Z,12.93
2023-05-06T14:54:00.688Z,12.98
2023-05-06T14:56:28.657Z,12.97
2023-05-06T14:58:56.576Z,13.01
2023-05-06T15:01:26.139Z,13.07
2023-05-06T15:03:54.204Z,13.01
2023-05-06T15:06:22.231Z,12.93
2023-05-06T15:08:50.607Z,13.03
2023-05-06T15:11:19.753Z,12.90
2023-05-06T15:13:47.615Z,12.70
2023-05-06T15:16:15.726Z,12.66
2023-05-06T15:18:45.276Z,12.64
2023-05-06T15:21:13.428Z,12.61
2023-05-06T15:23:43.901Z,12.68
2023-05-06T15:26:12.276Z,12.48
2023-05-06T15:28:40.709Z,12.56
2023-05-06T15:31:09.642Z,12.56
2023-05-06T15:33:37.618Z,12.74
2023-05-06T15:36:07.539Z,13.00
2023-05-06T15:39:00.453Z,12.87
2023-05-06T15:41:30.828Z,12.85
2023-05-06T15:43:59.834Z,13.00
2023-05-06T15:46:28.625Z,12.84
2023-05-06T15:49:15.804Z,12.65
2023-05-06T15:51:46.404Z,12.54
2023-05-06T15:54:14.338Z,12.63
2023-05-06T15:56:42.404Z,12.79
2023-05-06T15:59:10.580Z,12.61
2023-05-06T16:04:09.709Z,12.63
2023-05-06T16:06:37.908Z,12.54
2023-05-06T16:09:08.941Z,12.61
2023-05-06T16:11:37.101Z,12.55
2023-05-06T16:14:07.896Z,12.49
2023-05-06T16:16:36.127Z,12.59
2023-05-06T16:19:04.120Z,12.61
2023-05-06T16:21:32.367Z,12.59
2023-05-06T16:24:02.418Z,12.60
2023-05-06T16:26:31.795Z,12.60
2023-05-06T16:29:02.665Z,12.68
2023-05-06T16:31:31.457Z,12.71
2023-05-06T16:33:59.724Z,12.52
2023-05-06T16:36:28.946Z,12.55
2023-05-06T16:38:56.913Z,12.57
2023-05-06T16:41:24.893Z,12.57
2023-05-06T16:43:54.245Z,12.55
2023-05-06T16:46:24.227Z,12.42
2023-05-06T16:48:52.639Z,12.48
2023-05-06T16:51:20.766Z,12.41
2023-05-06T16:53:48.757Z,12.34
2023-05-06T16:56:16.896Z,12.52
2023-05-06T16:58:44.895Z,12.45
2023-05-06T17:01:14.263Z,12.46
2023-05-06T17:03:42.259Z,12.56
2023-05-06T17:06:10.183Z,12.66
2023-05-06T17:08:38.452Z,12.57
2023-05-06T17:11:08.004Z,12.58
2023-05-06T17:13:36.047Z,12.61
2023-05-06T17:16:04.006Z,12.52
2023-05-06T17:18:33.520Z,12.45
2023-05-06T17:21:02.144Z,12.40
2023-05-06T17:23:30.205Z,12.39
2023-05-06T17:25:58.398Z,12.42
2023-05-06T17:28:27.163Z,12.44
2023-05-06T17:30:55.125Z,12.36
2023-05-06T17:33:23.070Z,12.09
2023-05-06T17:35:52.358Z,12.17
2023-05-06T17:38:20.553Z,12.15
2023-05-06T17:40:48.728Z,12.12
2023-05-06T17:43:16.607Z,12.28
2023-05-06T17:45:44.429Z,12.26
2023-05-06T17:48:12.501Z,12.22
2023-05-06T17:50:40.417Z,12.32
2023-05-06T17:53:09.822Z,12.25
2023-05-06T17:55:38.011Z,12.18
2023-05-06T17:58:05.933Z,12.05
2023-05-06T18:00:33.906Z,11.97
2023-05-06T18:03:02.079Z,11.96
2023-05-06T18:05:30.716Z,12.00
2023-05-06T18:07:58.904Z,11.93
2023-05-06T18:10:28.377Z,11.97
2023-05-06T18:12:57.655Z,11.98
2023-05-06T18:15:28.900Z,12.00
2023-05-06T18:17:56.876Z,11.94
2023-05-06T18:20:24.852Z,11.86
2023-05-06T18:22:52.711Z,11.79
2023-05-06T18:25:21.085Z,11.92
2023-05-06T18:27:50.441Z,11.92
2023-05-06T18:30:18.350Z,12.06
2023-05-06T18:32:47.701Z,12.00
2023-05-06T18:35:16.669Z,11.96
2023-05-06T18:37:44.766Z,11.88
2023-05-06T18:40:13.849Z,11.88
2023-05-06T18:42:41.876Z,11.74
2023-05-06T18:45:12.886Z,11.72
2023-05-06T18:47:41.273Z,11.87
2023-05-06T18:50:09.943Z,11.83
2023-05-06T18:52:37.891Z,11.74
2023-05-06T18:55:07.522Z,11.76
2023-05-06T18:57:35.665Z,11.84
2023-05-06T19:00:07.181Z,11.88
2023-05-06T19:02:37.906Z,11.80
2023-05-06T19:05:06.728Z,11.75
2023-05-06T19:07:34.709Z,11.87
2023-05-06T19:10:02.782Z,12.00
2023-05-06T19:12:31.211Z,11.88
2023-05-06T19:14:59.149Z,11.90
2023-05-06T19:17:28.506Z,12.01
2023-05-06T19:19:57.944Z,11.94
2023-05-06T19:22:28.929Z,11.84
2023-05-06T19:24:57.034Z,11.85
2023-05-06T19:27:25.525Z,11.75
2023-05-06T19:29:53.569Z,11.77
2023-05-06T19:32:22.092Z,11.84
2023-05-06T19:34:50.958Z,11.84
2023-05-06T19:37:20.433Z,11.69
2023-05-06T19:39:49.784Z,11.73
2023-05-06T19:42:17.685Z,11.72
2023-05-06T19:44:45.715Z,11.71
2023-05-06T19:47:14.257Z,11.69
2023-05-06T19:49:43.515Z,11.84
2023-05-06T19:52:31.664Z,11.94
2023-05-06T19:55:03.282Z,11.95
2023-05-06T19:57:31.978Z,11.97
2023-05-06T20:00:00.535Z,11.94
2023-05-06T20:02:29.812Z,11.81
2023-05-06T20:04:57.948Z,11.81
2023-05-06T20:07:25.978Z,11.89
2023-05-06T20:09:55.529Z,11.77
2023-05-06T20:12:28.911Z,11.77
2023-05-06T20:14:57.532Z,11.83
2023-05-06T20:17:25.974Z,11.82
2023-05-06T20:19:57.266Z,11.62
2023-05-06T20:22:25.418Z,11.66
2023-05-06T20:24:54.376Z,11.52
2023-05-06T20:27:24.035Z,11.54
2023-05-06T20:29:54.670Z,11.54
2023-05-06T20:32:22.620Z,11.53
2023-05-06T20:34:53.196Z,11.51
2023-05-06T20:37:21.458Z,11.49
2023-05-06T20:39:49.496Z,11.63
2023-05-06T20:42:17.505Z,11.59
2023-05-06T20:44:47.306Z,11.52
2023-05-06T20:47:15.331Z,11.46
2023-05-06T20:49:43.940Z,11.56
2023-05-06T20:52:14.755Z,11.53
2023-05-06T20:54:44.264Z,11.56
2023-05-06T20:57:18.913Z,11.58
2023-05-06T20:59:49.662Z,11.46
2023-05-06T21:02:17.737Z,11.49
2023-05-06T21:04:45.769Z,11.49
2023-05-06T21:07:13.794Z,11.64
2023-05-06T21:09:43.121Z,11.67
2023-05-06T21:12:13.183Z,11.63
2023-05-06T21:14:41.337Z,11.65
2023-05-06T21:17:11.570Z,11.72
2023-05-06T21:19:40.524Z,11.60
2023-05-06T21:22:10.881Z,11.61
2023-05-06T21:24:39.088Z,11.54
2023-05-06T21:27:07.313Z,11.57
2023-05-06T21:29:35.452Z,11.63
2023-05-06T21:32:03.318Z,11.59
2023-05-06T21:34:32.774Z,11.58
2023-05-06T21:37:00.735Z,11.63
2023-05-06T21:39:28.794Z,11.62
2023-05-06T21:41:57.066Z,11.63
2023-05-06T21:44:25.155Z,11.61
2023-05-06T21:46:53.392Z,11.79
2023-05-06T21:49:22.470Z,11.84
2023-05-06T21:51:52.238Z,11.76
2023-05-06T21:54:20.228Z,11.75
2023-05-06T21:56:48.452Z,11.75
2023-05-06T21:59:16.712Z,11.71
2023-05-06T22:01:44.735Z,11.68
2023-05-06T22:04:13.382Z,11.66
2023-05-06T22:06:41.509Z,11.75
2023-05-06T22:09:11.348Z,11.72
2023-05-06T22:11:39.603Z,11.63
2023-05-06T22:14:07.593Z,11.52
2023-05-06T22:16:37.777Z,11.43
2023-05-06T22:19:06.745Z,11.56
2023-05-06T22:21:35.032Z,11.53
2023-05-06T22:24:03.532Z,11.50
2023-05-06T22:26:33.128Z,11.41
2023-05-06T22:29:01.169Z,11.54
2023-05-06T22:31:29.467Z,11.62
2023-05-06T22:33:58.258Z,11.46
2023-05-06T22:36:29.233Z,11.39
2023-05-06T22:38:57.662Z,11.41
2023-05-06T22:41:26.013Z,11.45
2023-05-06T22:43:55.290Z,11.41
2023-05-06T22:46:23.264Z,11.41
2023-05-06T22:48:51.307Z,11.49
2023-05-06T22:51:20.306Z,11.20
2023-05-06T22:53:48.805Z,11.19
2023-05-06T22:56:17.194Z,11.20
2023-05-06T22:58:45.288Z,11.26
2023-05-06T23:01:14.699Z,11.19
2023-05-06T23:03:43.118Z,11.01
2023-05-06T23:06:11.731Z,11.01
2023-05-06T23:08:39.929Z,11.05
2023-05-06T23:11:07.919Z,11.06
2023-05-06T23:13:36.621Z,11.14
2023-05-06T23:16:05.556Z,11.10
2023-05-06T23:18:35.905Z,11.06
2023-05-06T23:21:04.284Z,11.08
2023-05-06T23:23:33.022Z,10.96
2023-05-06T23:26:01.079Z,10.97
2023-05-06T23:28:29.346Z,11.00
2023-05-06T23:30:57.485Z,10.94
2023-05-06T23:33:25.605Z,10.95
2023-05-06T23:35:55.153Z,10.87
2023-05-06T23:38:23.003Z,11.08
2023-05-06T23:40:50.954Z,10.85
2023-05-06T23:43:18.948Z,10.93
2023-05-06T23:45:47.078Z,10.94
2023-05-06T23:48:15.438Z,11.01
2023-05-06T23:50:43.635Z,11.04
2023-05-06T23:53:13.292Z,11.09
2023-05-06T23:55:42.773Z,11.16
2023-05-06T23:58:11.277Z,10.96
